Terminal Aerodrome Forecast
Issued by NWS

Home | Current Version | Previous Version | Text Only | Print | Product List | Glossary On
Versions: 1 2 3 4 5 6 7 8 9 10 11 12 13 14 15 16 17 18 19 20 21
000
FTUS41 KCLE 271800 AAA
TAFFDY
TAF AMD
KFDY 271852Z 2719/2818 VRB05KT P6SM SCT030
     FM280000 02004KT P6SM SCT250
     FM280800 06004KT 3SM BR SCT250
     FM281300 06004KT P6SM SCT250=

USA.gov is the U.S. government's official web portal to all federal, state and local government web resources and services.